Time;durP1;ratioP1;P1;durP2;ratioP2;P2;SDS_P1;SDS_P2;PMS_P1;PMS_P2;Temp;Humidity;BMP_temperature;BMP_pressure;BME280_temperature;BME280_humidity;BME280_pressure;Samples;Min_cycle;Max_cycle;Signal;HPM_P1;HPM_P2
2023/10/07 00:00:31;;;;;;;12.18;5.35;;;;;;;;;;4265914;27;20411;-87
2023/10/07 00:02:34;;;;;;;13.23;5.60;;;;;;;;;;4265730;27;20218;-86
2023/10/07 00:04:38;;;;;;;11.07;4.85;;;;;;;;;;4268475;27;20054;-86
2023/10/07 00:06:40;;;;;;;12.00;5.40;;;;;;;;;;4275654;27;20445;-88
2023/10/07 00:08:42;;;;;;;10.57;4.85;;;;;;;;;;4266077;27;20047;-89
2023/10/07 00:10:46;;;;;;;10.95;5.25;;;;;;;;;;4265921;27;20047;-88
2023/10/07 00:12:51;;;;;;;9.82;4.82;;;;;;;;;;4265980;27;20046;-89
2023/10/07 00:14:53;;;;;;;11.18;5.10;;;;;;;;;;4265693;27;20057;-89
2023/10/07 00:16:55;;;;;;;12.02;5.30;;;;;;;;;;4265312;27;20047;-88
2023/10/07 00:18:57;;;;;;;12.35;5.15;;;;;;;;;;4265558;27;20121;-90
2023/10/07 00:20:59;;;;;;;12.55;5.22;;;;;;;;;;4266316;27;20080;-90
2023/10/07 00:23:01;;;;;;;11.48;5.38;;;;;;;;;;4266005;27;20050;-90
2023/10/07 00:25:05;;;;;;;10.73;5.13;;;;;;;;;;4265830;27;20043;-89
2023/10/07 00:27:21;;;;;;;10.98;5.25;;;;;;;;;;4275137;27;20038;-88
2023/10/07 00:29:24;;;;;;;13.48;5.47;;;;;;;;;;4282935;27;20404;-87
2023/10/07 00:31:28;;;;;;;11.80;5.32;;;;;;;;;;4281800;27;20074;-87
2023/10/07 00:33:45;;;;;;;10.95;5.45;;;;;;;;;;4283044;27;20121;-87
2023/10/07 00:35:50;;;;;;;9.90;4.95;;;;;;;;;;4268085;27;20400;-87
2023/10/07 00:37:52;;;;;;;11.52;5.15;;;;;;;;;;4259882;27;20039;-87
2023/10/07 00:39:55;;;;;;;11.50;4.93;;;;;;;;;;4268106;27;20051;-87
2023/10/07 00:41:58;;;;;;;11.00;4.80;;;;;;;;;;4269063;27;20054;-87
2023/10/07 00:44:16;;;;;;;11.15;5.15;;;;;;;;;;4268757;27;20039;-87
2023/10/07 00:46:28;;;;;;;11.25;5.38;;;;;;;;;;4281964;27;20042;-87
2023/10/07 00:48:42;;;;;;;10.95;4.68;;;;;;;;;;4286156;27;20046;-87
2023/10/07 00:50:45;;;;;;;10.87;4.80;;;;;;;;;;4275825;27;20054;-86
2023/10/07 00:52:55;;;;;;;12.45;5.60;;;;;;;;;;4268821;27;20042;-87
2023/10/07 00:55:08;;;;;;;12.18;5.50;;;;;;;;;;4268631;27;20099;-88
2023/10/07 00:57:13;;;;;;;10.68;5.43;;;;;;;;;;4252832;27;20047;-88
2023/10/07 00:59:18;;;;;;;13.07;5.80;;;;;;;;;;4254326;27;20136;-88
2023/10/07 01:01:21;;;;;;;10.70;5.15;;;;;;;;;;4253855;27;20108;-88
2023/10/07 01:03:31;;;;;;;12.68;5.35;;;;;;;;;;4270892;27;20043;-88
2023/10/07 01:05:34;;;;;;;9.43;4.88;;;;;;;;;;4268634;27;20498;-88
2023/10/07 01:07:36;;;;;;;11.00;4.95;;;;;;;;;;4269072;27;20475;-88
2023/10/07 01:09:39;;;;;;;11.35;5.10;;;;;;;;;;4268379;27;20107;-88
2023/10/07 01:11:45;;;;;;;10.73;4.85;;;;;;;;;;4268762;27;20086;-89
2023/10/07 01:13:50;;;;;;;10.00;4.75;;;;;;;;;;4268070;27;20068;-88
2023/10/07 01:15:54;;;;;;;10.57;5.05;;;;;;;;;;4267903;27;20039;-88
2023/10/07 01:17:56;;;;;;;11.27;4.90;;;;;;;;;;4268770;27;20047;-87
2023/10/07 01:20:03;;;;;;;11.75;5.13;;;;;;;;;;4268547;27;20396;-86
2023/10/07 01:22:11;;;;;;;11.05;4.80;;;;;;;;;;4281397;27;20046;-88
2023/10/07 01:24:15;;;;;;;13.50;4.35;;;;;;;;;;4282930;27;20141;-89
2023/10/07 01:26:23;;;;;;;11.63;5.18;;;;;;;;;;4284323;27;20133;-87
2023/10/07 01:28:26;;;;;;;9.85;4.60;;;;;;;;;;4267635;27;20054;-88
2023/10/07 01:30:34;;;;;;;11.15;5.00;;;;;;;;;;4268470;27;20053;-87
2023/10/07 01:32:42;;;;;;;11.35;5.10;;;;;;;;;;4268543;27;20065;-87
2023/10/07 01:34:49;;;;;;;11.27;5.15;;;;;;;;;;4268347;27;20043;-88
2023/10/07 01:36:51;;;;;;;12.43;4.95;;;;;;;;;;4268164;27;20054;-86
2023/10/07 01:38:54;;;;;;;11.35;5.70;;;;;;;;;;4268133;27;20120;-86
2023/10/07 01:41:05;;;;;;;10.25;4.88;;;;;;;;;;4268137;27;20539;-87
2023/10/07 01:43:08;;;;;;;10.75;4.53;;;;;;;;;;4268375;27;20042;-87
2023/10/07 01:45:20;;;;;;;9.70;4.90;;;;;;;;;;4268304;27;20051;-88
2023/10/07 01:47:24;;;;;;;11.85;5.10;;;;;;;;;;4250594;27;20053;-88
2023/10/07 01:49:30;;;;;;;11.23;5.28;;;;;;;;;;4251092;27;20047;-86
2023/10/07 01:51:32;;;;;;;10.15;4.95;;;;;;;;;;4268300;27;20387;-87
2023/10/07 01:53:38;;;;;;;12.05;5.32;;;;;;;;;;4268235;27;20050;-88
2023/10/07 01:55:43;;;;;;;9.20;4.63;;;;;;;;;;4267279;27;20473;-87
2023/10/07 01:57:48;;;;;;;12.65;4.95;;;;;;;;;;4267920;27;20470;-87
2023/10/07 01:59:52;;;;;;;;;;;;;;;;;;4267434;27;20480;-88
2023/10/07 02:01:58;;;;;;;12.45;4.40;;;;;;;;;;4267501;27;19919;-88
2023/10/07 02:04:06;;;;;;;10.35;4.60;;;;;;;;;;4268065;27;20518;-88
2023/10/07 02:06:08;;;;;;;9.75;4.43;;;;;;;;;;4263422;27;20076;-88
2023/10/07 02:08:14;;;;;;;10.13;4.20;;;;;;;;;;4285173;27;20098;-88
2023/10/07 02:10:23;;;;;;;10.02;4.47;;;;;;;;;;4251106;27;20047;-89
2023/10/07 02:12:32;;;;;;;9.75;4.20;;;;;;;;;;4262250;27;20070;-88
2023/10/07 02:14:36;;;;;;;9.05;4.53;;;;;;;;;;4266942;27;20425;-83
2023/10/07 02:16:39;;;;;;;13.45;5.47;;;;;;;;;;4275496;27;20100;-84
2023/10/07 02:18:44;;;;;;;10.73;5.20;;;;;;;;;;4284886;27;20046;-84
2023/10/07 02:20:49;;;;;;;9.77;4.50;;;;;;;;;;4284759;27;20444;-84
2023/10/07 02:22:52;;;;;;;10.23;5.10;;;;;;;;;;4284846;27;20137;-84
2023/10/07 02:25:04;;;;;;;11.05;4.90;;;;;;;;;;4284265;27;20042;-84
2023/10/07 02:27:17;;;;;;;9.95;4.88;;;;;;;;;;4266749;27;20054;-84
2023/10/07 02:29:21;;;;;;;10.80;4.70;;;;;;;;;;4250156;27;20050;-84
2023/10/07 02:31:28;;;;;;;11.45;5.22;;;;;;;;;;4250085;27;20536;-83
2023/10/07 02:33:41;;;;;;;9.60;4.70;;;;;;;;;;4250248;27;20397;-83
2023/10/07 02:35:46;;;;;;;10.48;5.00;;;;;;;;;;4276627;27;20121;-83
2023/10/07 02:37:50;;;;;;;10.73;4.97;;;;;;;;;;4266922;27;20042;-83
2023/10/07 02:39:56;;;;;;;10.52;5.07;;;;;;;;;;4267073;27;20480;-83
2023/10/07 02:41:58;;;;;;;;;;;;;;;;;;4267584;27;20038;-83
2023/10/07 02:44:06;;;;;;;10.77;4.88;;;;;;;;;;4266949;27;19972;-83
2023/10/07 02:46:08;;;;;;;12.07;5.47;;;;;;;;;;4274759;27;20402;-82
2023/10/07 02:48:11;;;;;;;11.95;5.10;;;;;;;;;;4277676;27;20607;-83
2023/10/07 02:50:13;;;;;;;10.48;4.93;;;;;;;;;;4257486;27;20070;-83
2023/10/07 02:52:17;;;;;;;11.35;5.22;;;;;;;;;;4266890;27;20085;-83
2023/10/07 02:54:20;;;;;;;10.13;4.80;;;;;;;;;;4277817;27;20049;-82
2023/10/07 02:56:22;;;;;;;10.90;5.43;;;;;;;;;;4262112;27;20082;-83
2023/10/07 02:58:32;;;;;;;10.68;4.88;;;;;;;;;;4248809;27;20138;-82
2023/10/07 03:00:36;;;;;;;11.70;5.43;;;;;;;;;;4249893;27;20043;-83
2023/10/07 03:02:48;;;;;;;10.43;5.03;;;;;;;;;;4264350;27;20066;-83
2023/10/07 03:05:13;;;;;;;14.27;5.70;;;;;;;;;;4266757;27;20103;-83
2023/10/07 03:07:16;;;;;;;12.07;6.07;;;;;;;;;;4279608;27;20121;-82
2023/10/07 03:09:19;;;;;;;12.68;5.40;;;;;;;;;;4266602;27;20053;-84
2023/10/07 03:11:24;;;;;;;12.10;5.15;;;;;;;;;;4267546;27;20066;-88
2023/10/07 03:13:26;;;;;;;10.90;5.87;;;;;;;;;;4267502;27;20121;-90
2023/10/07 03:15:41;;;;;;;12.68;5.78;;;;;;;;;;4267314;27;20335;-90
2023/10/07 03:17:45;;;;;;;12.02;5.80;;;;;;;;;;4270454;27;20448;-90
2023/10/07 03:19:52;;;;;;;12.50;5.40;;;;;;;;;;4271914;27;20046;-92
2023/10/07 03:21:55;;;;;;;11.88;6.18;;;;;;;;;;4279512;27;20043;-91
2023/10/07 03:23:58;;;;;;;8.77;4.95;;;;;;;;;;4283767;27;20051;-92
2023/10/07 03:26:05;;;;;;;10.93;5.38;;;;;;;;;;4293774;27;20411;-91
2023/10/07 03:28:16;;;;;;;11.30;5.47;;;;;;;;;;4284164;27;20074;-91
2023/10/07 03:30:19;;;;;;;10.68;5.25;;;;;;;;;;4281282;27;20038;-91
2023/10/07 03:32:20;;;;;;;10.10;4.97;;;;;;;;;;4273813;27;20047;-88
2023/10/07 03:34:24;;;;;;;11.20;4.93;;;;;;;;;;4277797;27;20046;-92
2023/10/07 03:36:44;;;;;;;10.70;4.88;;;;;;;;;;4280274;27;20038;-89
2023/10/07 03:38:55;;;;;;;9.82;4.75;;;;;;;;;;4281529;27;20407;-91
2023/10/07 03:40:57;;;;;;;11.60;5.20;;;;;;;;;;4275184;27;20038;-90
2023/10/07 03:43:00;;;;;;;11.25;5.13;;;;;;;;;;4255065;27;20073;-92
2023/10/07 03:45:02;;;;;;;11.23;5.28;;;;;;;;;;4254261;27;20090;-92
2023/10/07 03:47:10;;;;;;;10.02;4.90;;;;;;;;;;4273323;27;20054;-89
2023/10/07 03:49:11;;;;;;;10.23;5.05;;;;;;;;;;4266923;27;20095;-90
2023/10/07 03:51:14;;;;;;;11.30;4.75;;;;;;;;;;4266784;27;20047;-92
2023/10/07 03:53:16;;;;;;;11.38;5.22;;;;;;;;;;4259971;27;20046;-91
2023/10/07 03:55:20;;;;;;;10.50;5.25;;;;;;;;;;4265372;27;20115;-90
2023/10/07 03:57:24;;;;;;;9.65;4.00;;;;;;;;;;4278125;27;20047;-92
2023/10/07 03:59:27;;;;;;;9.15;4.88;;;;;;;;;;4285459;27;20445;-94
2023/10/07 04:01:31;;;;;;;10.85;5.15;;;;;;;;;;4296640;27;20042;-94
2023/10/07 04:03:35;;;;;;;10.73;4.68;;;;;;;;;;4292666;27;20046;-92
2023/10/07 04:05:42;;;;;;;9.85;4.90;;;;;;;;;;4286650;27;20043;-92
2023/10/07 04:07:44;;;;;;;12.68;5.85;;;;;;;;;;4283523;27;20078;-94
2023/10/07 04:09:46;;;;;;;10.80;5.43;;;;;;;;;;4284453;27;20562;-94
2023/10/07 04:11:50;;;;;;;9.88;4.90;;;;;;;;;;4284553;27;20558;-93
2023/10/07 04:13:53;;;;;;;10.98;5.55;;;;;;;;;;4284429;27;20060;-92
2023/10/07 04:15:57;;;;;;;11.95;5.07;;;;;;;;;;4284120;27;20070;-95
2023/10/07 04:18:00;;;;;;;9.75;4.78;;;;;;;;;;4254435;27;20095;-94
2023/10/07 04:20:18;;;;;;;11.35;5.53;;;;;;;;;;4267001;27;20047;-95
2023/10/07 04:22:24;;;;;;;10.40;4.88;;;;;;;;;;4266939;27;20086;-95
2023/10/07 04:24:28;;;;;;;12.30;4.90;;;;;;;;;;4266968;27;20187;-94
2023/10/07 04:26:33;;;;;;;10.35;5.28;;;;;;;;;;4260107;27;20074;-93
2023/10/07 04:28:39;;;;;;;12.43;5.22;;;;;;;;;;4249518;28;20134;-92
2023/10/07 04:30:46;;;;;;;9.48;4.45;;;;;;;;;;4264772;27;20496;-82
2023/10/07 04:32:52;;;;;;;11.40;5.18;;;;;;;;;;4265361;27;20047;-83
2023/10/07 04:35:16;;;;;;;12.65;5.10;;;;;;;;;;4265682;27;20062;-81
2023/10/07 04:37:18;;;;;;;9.45;4.50;;;;;;;;;;4263999;27;20093;-88
2023/10/07 04:39:27;;;;;;;11.40;5.10;;;;;;;;;;4265683;27;21817;-90
2023/10/07 04:41:32;;;;;;;10.68;5.28;;;;;;;;;;4266135;27;20087;-89
2023/10/07 04:43:47;;;;;;;10.90;5.32;;;;;;;;;;4265951;27;20043;-91
2023/10/07 04:45:53;;;;;;;9.80;5.03;;;;;;;;;;4265932;27;20047;-91
2023/10/07 04:47:57;;;;;;;11.75;4.90;;;;;;;;;;4266072;27;20047;-89
2023/10/07 04:50:05;;;;;;;11.30;4.72;;;;;;;;;;4265839;27;20047;-90
2023/10/07 04:52:08;;;;;;;9.90;4.65;;;;;;;;;;4266283;27;20495;-90
2023/10/07 04:54:11;;;;;;;10.55;4.70;;;;;;;;;;4266003;27;20053;-90
2023/10/07 04:56:21;;;;;;;10.40;4.90;;;;;;;;;;4266050;27;20074;-92
2023/10/07 04:58:24;;;;;;;10.32;4.35;;;;;;;;;;4266036;27;20095;-91
2023/10/07 05:00:34;;;;;;;10.20;5.07;;;;;;;;;;4262518;27;20133;-92
2023/10/07 05:02:38;;;;;;;8.73;4.15;;;;;;;;;;4249052;28;20051;-89
2023/10/07 05:04:41;;;;;;;11.55;4.95;;;;;;;;;;4262215;27;20042;-89
2023/10/07 05:06:43;;;;;;;10.52;5.38;;;;;;;;;;4262471;27;20065;-89
2023/10/07 05:08:45;;;;;;;10.57;4.70;;;;;;;;;;4265948;27;20046;-89
2023/10/07 05:10:52;;;;;;;10.55;5.05;;;;;;;;;;4265509;27;20054;-90
2023/10/07 05:12:55;;;;;;;10.80;4.97;;;;;;;;;;4265829;27;20046;-88
2023/10/07 05:15:00;;;;;;;13.50;5.50;;;;;;;;;;4265330;27;20047;-89
2023/10/07 05:17:03;;;;;;;8.88;4.60;;;;;;;;;;4248641;27;20047;-87
2023/10/07 05:19:08;;;;;;;10.10;4.55;;;;;;;;;;4265411;27;20531;-89
2023/10/07 05:21:11;;;;;;;9.77;4.85;;;;;;;;;;4266207;27;20376;-88
2023/10/07 05:23:14;;;;;;;12.70;5.50;;;;;;;;;;4268576;27;20496;-89
2023/10/07 05:25:17;;;;;;;10.00;4.88;;;;;;;;;;4268546;27;20078;-89
2023/10/07 05:27:19;;;;;;;9.85;4.63;;;;;;;;;;4268572;27;20039;-89
2023/10/07 05:29:20;;;;;;;10.50;4.55;;;;;;;;;;4268543;27;20047;-89
2023/10/07 05:31:23;;;;;;;8.80;4.60;;;;;;;;;;4268551;27;20042;-88
2023/10/07 05:33:27;;;;;;;9.70;4.45;;;;;;;;;;4268502;27;20399;-87
2023/10/07 05:35:29;;;;;;;9.70;4.70;;;;;;;;;;4268495;27;20096;-89
2023/10/07 05:37:31;;;;;;;9.98;4.50;;;;;;;;;;4268576;27;20448;-90
2023/10/07 05:39:34;;;;;;;9.90;4.90;;;;;;;;;;4268540;27;20091;-88
2023/10/07 05:41:39;;;;;;;10.35;4.70;;;;;;;;;;4268287;27;20409;-88
2023/10/07 05:43:43;;;;;;;9.85;4.85;;;;;;;;;;4268113;27;20057;-88
2023/10/07 05:45:45;;;;;;;9.20;4.32;;;;;;;;;;4268310;27;20047;-88
2023/10/07 05:47:47;;;;;;;9.82;4.68;;;;;;;;;;4268307;27;20053;-88
2023/10/07 05:49:55;;;;;;;11.55;4.80;;;;;;;;;;4268703;27;20074;-90
2023/10/07 05:51:58;;;;;;;10.05;4.47;;;;;;;;;;4268463;27;20070;-89
2023/10/07 05:54:00;;;;;;;10.55;4.90;;;;;;;;;;4268249;27;20492;-88
2023/10/07 05:56:05;;;;;;;9.75;4.18;;;;;;;;;;4268181;27;20488;-89
2023/10/07 05:58:07;;;;;;;9.32;4.07;;;;;;;;;;4267956;27;20043;-89
2023/10/07 06:00:10;;;;;;;12.40;5.47;;;;;;;;;;4268121;27;20495;-89
2023/10/07 06:02:14;;;;;;;14.23;5.88;;;;;;;;;;4268307;27;20092;-89
2023/10/07 06:04:17;;;;;;;11.70;5.13;;;;;;;;;;4268873;27;20043;-89
2023/10/07 06:06:20;;;;;;;11.07;5.55;;;;;;;;;;4268245;27;20091;-90
2023/10/07 06:08:23;;;;;;;11.18;5.50;;;;;;;;;;4267966;27;20127;-88
2023/10/07 06:10:27;;;;;;;12.30;5.68;;;;;;;;;;4267874;27;20391;-89
2023/10/07 06:12:29;;;;;;;8.52;4.22;;;;;;;;;;4267762;27;20087;-87
2023/10/07 06:14:32;;;;;;;11.23;5.40;;;;;;;;;;4267568;27;20055;-88
2023/10/07 06:16:34;;;;;;;10.88;5.35;;;;;;;;;;4267720;27;20046;-89
2023/10/07 06:18:36;;;;;;;9.60;4.95;;;;;;;;;;4267613;27;20092;-89
2023/10/07 06:20:38;;;;;;;9.57;4.70;;;;;;;;;;4267603;27;20039;-88
2023/10/07 06:22:46;;;;;;;10.02;5.20;;;;;;;;;;4267919;27;20043;-88
2023/10/07 06:24:52;;;;;;;10.13;5.20;;;;;;;;;;4267865;27;20074;-89
2023/10/07 06:26:54;;;;;;;11.40;5.47;;;;;;;;;;4267795;27;20129;-90
2023/10/07 06:28:57;;;;;;;10.23;4.72;;;;;;;;;;4267726;27;20115;-89
2023/10/07 06:31:10;;;;;;;12.88;5.03;;;;;;;;;;4267606;27;20103;-88
2023/10/07 06:33:13;;;;;;;11.48;4.95;;;;;;;;;;4267586;27;20395;-89
2023/10/07 06:35:21;;;;;;;12.68;5.38;;;;;;;;;;4267587;27;20043;-89
2023/10/07 06:37:28;;;;;;;14.40;5.45;;;;;;;;;;4267584;27;20042;-89
2023/10/07 06:39:32;;;;;;;12.90;5.95;;;;;;;;;;4267619;27;20055;-89
2023/10/07 06:41:34;;;;;;;11.32;5.28;;;;;;;;;;4267543;27;20107;-89
2023/10/07 06:43:37;;;;;;;10.10;4.85;;;;;;;;;;4267454;27;20433;-89
2023/10/07 06:45:44;;;;;;;10.13;4.72;;;;;;;;;;4267153;27;20085;-90
2023/10/07 06:47:47;;;;;;;10.07;5.07;;;;;;;;;;4267268;27;20043;-90
2023/10/07 06:49:52;;;;;;;11.73;5.20;;;;;;;;;;4267244;27;20039;-90
2023/10/07 06:51:56;;;;;;;9.57;4.63;;;;;;;;;;4267470;27;20043;-90
2023/10/07 06:54:03;;;;;;;9.38;4.85;;;;;;;;;;4249245;27;20142;-88
2023/10/07 06:56:06;;;;;;;9.35;4.65;;;;;;;;;;4264361;27;20134;-89
2023/10/07 06:58:09;;;;;;;11.90;5.70;;;;;;;;;;4249810;27;20084;-90
2023/10/07 07:00:22;;;;;;;11.20;5.40;;;;;;;;;;4250168;27;20065;-89
2023/10/07 07:02:34;;;;;;;10.00;5.53;;;;;;;;;;4250165;27;20044;-91
2023/10/07 07:04:38;;;;;;;12.50;5.88;;;;;;;;;;4250438;27;20051;-91
2023/10/07 07:06:42;;;;;;;11.32;5.82;;;;;;;;;;4263197;27;20043;-89
2023/10/07 07:08:45;;;;;;;12.68;5.57;;;;;;;;;;4267233;27;20415;-90
2023/10/07 07:10:50;;;;;;;14.63;6.07;;;;;;;;;;4267265;27;20089;-90
2023/10/07 07:12:58;;;;;;;11.82;5.68;;;;;;;;;;4267003;27;20078;-89
2023/10/07 07:15:04;;;;;;;11.68;5.30;;;;;;;;;;4266954;27;20055;-90
2023/10/07 19:42:53;;;;;;;8.80;3.60;;;;;;;;;;4241837;27;20363;-80
2023/10/07 19:44:56;;;;;;;8.25;3.53;;;;;;;;;;4226370;28;20055;-84
2023/10/07 19:46:58;;;;;;;8.70;3.78;;;;;;;;;;4228611;28;20059;-82
2023/10/07 19:49:00;;;;;;;8.20;4.00;;;;;;;;;;4211951;28;20138;-79
2023/10/07 19:51:03;;;;;;;7.68;3.72;;;;;;;;;;4227645;28;20398;-79
2023/10/07 19:53:06;;;;;;;7.13;3.65;;;;;;;;;;4217386;28;20056;-78
2023/10/07 19:55:08;;;;;;;8.20;3.75;;;;;;;;;;4210331;28;20055;-80
2023/10/07 19:57:10;;;;;;;9.85;4.30;;;;;;;;;;4210691;28;20052;-80
2023/10/07 19:59:14;;;;;;;11.05;4.93;;;;;;;;;;4235496;27;20055;-80
2023/10/07 20:01:17;;;;;;;7.38;3.70;;;;;;;;;;4223262;28;20554;-80
2023/10/07 20:03:19;;;;;;;8.27;4.45;;;;;;;;;;4210822;28;20048;-80
2023/10/07 20:05:22;;;;;;;7.15;3.85;;;;;;;;;;4210885;28;20142;-79
2023/10/07 20:07:24;;;;;;;8.82;3.72;;;;;;;;;;4210336;28;20465;-81
2023/10/07 20:09:27;;;;;;;8.20;3.70;;;;;;;;;;4223101;28;20048;-80
2023/10/07 20:11:29;;;;;;;7.88;3.63;;;;;;;;;;4238750;28;20130;-80
2023/10/07 20:13:32;;;;;;;9.13;3.92;;;;;;;;;;4226864;28;20057;-80
2023/10/07 20:15:35;;;;;;;6.60;3.00;;;;;;;;;;4227446;28;20044;-79
2023/10/07 20:17:40;;;;;;;8.95;3.67;;;;;;;;;;4227407;28;20058;-78
2023/10/07 20:19:42;;;;;;;8.73;3.85;;;;;;;;;;4226603;28;20105;-79
2023/10/07 20:21:45;;;;;;;10.60;4.72;;;;;;;;;;4226268;28;20055;-77
2023/10/07 20:23:49;;;;;;;9.15;4.32;;;;;;;;;;4226815;28;20474;-77
2023/10/07 20:26:00;;;;;;;8.30;4.05;;;;;;;;;;4230386;28;20087;-79
2023/10/07 20:28:03;;;;;;;9.48;3.72;;;;;;;;;;4229598;28;20447;-79
2023/10/07 20:30:10;;;;;;;8.60;4.00;;;;;;;;;;4228046;28;20053;-79
2023/10/07 20:32:13;;;;;;;9.20;3.95;;;;;;;;;;4227481;28;20044;-81
2023/10/07 20:34:16;;;;;;;9.77;4.03;;;;;;;;;;4227485;28;20051;-81
2023/10/07 20:36:18;;;;;;;8.52;3.65;;;;;;;;;;4227222;28;20097;-80
2023/10/07 20:38:20;;;;;;;8.15;3.90;;;;;;;;;;4226866;28;20043;-80
2023/10/07 20:40:22;;;;;;;8.23;4.00;;;;;;;;;;4226555;28;20704;-82
2023/10/07 20:42:24;;;;;;;9.93;4.55;;;;;;;;;;4227610;28;20101;-81
2023/10/07 20:44:27;;;;;;;7.13;3.90;;;;;;;;;;4219230;28;20109;-80
2023/10/07 20:46:29;;;;;;;8.52;4.28;;;;;;;;;;4209585;28;20109;-79
2023/10/07 20:48:33;;;;;;;8.32;4.13;;;;;;;;;;4210316;28;20454;-80
2023/10/07 20:50:35;;;;;;;8.95;4.35;;;;;;;;;;4211310;28;20048;-78
2023/10/07 20:52:38;;;;;;;9.95;4.47;;;;;;;;;;4217391;28;20052;-81
2023/10/07 20:54:40;;;;;;;7.35;4.00;;;;;;;;;;4214838;28;20093;-80
2023/10/07 20:56:42;;;;;;;8.02;4.05;;;;;;;;;;4215844;28;20401;-80
2023/10/07 20:58:44;;;;;;;8.85;4.13;;;;;;;;;;4215068;28;20485;-80
2023/10/07 21:00:46;;;;;;;9.80;4.22;;;;;;;;;;4215370;28;20478;-81
2023/10/07 21:02:49;;;;;;;10.65;4.82;;;;;;;;;;4215547;28;20066;-80
2023/10/07 21:04:51;;;;;;;9.57;4.60;;;;;;;;;;4214545;28;20054;-77
2023/10/07 21:06:54;;;;;;;9.25;4.28;;;;;;;;;;4215145;28;20442;-80
2023/10/07 21:08:56;;;;;;;9.75;4.90;;;;;;;;;;4215518;28;20113;-79
2023/10/07 21:10:58;;;;;;;9.73;4.60;;;;;;;;;;4215094;28;20395;-79
2023/10/07 21:13:00;;;;;;;10.82;4.82;;;;;;;;;;4210322;28;20508;-79
2023/10/07 21:15:02;;;;;;;8.82;4.70;;;;;;;;;;4226428;28;20052;-77
2023/10/07 21:17:05;;;;;;;9.57;4.93;;;;;;;;;;4232683;28;20055;-79
2023/10/07 21:19:06;;;;;;;9.13;4.75;;;;;;;;;;4225063;28;20055;-79
2023/10/07 21:21:11;;;;;;;8.65;4.13;;;;;;;;;;4208784;28;20055;-80
2023/10/07 21:23:13;;;;;;;9.00;4.80;;;;;;;;;;4227066;28;20044;-78
2023/10/07 21:25:15;;;;;;;9.25;4.50;;;;;;;;;;4239433;28;20047;-79
2023/10/07 21:27:17;;;;;;;9.68;4.88;;;;;;;;;;4236947;28;20054;-77
2023/10/07 21:29:19;;;;;;;10.55;4.57;;;;;;;;;;4240033;28;20051;-77
2023/10/07 21:31:25;;;;;;;8.27;4.25;;;;;;;;;;4228743;28;20108;-81
2023/10/07 21:33:27;;;;;;;10.25;4.60;;;;;;;;;;4216650;28;20504;-81
2023/10/07 21:35:31;;;;;;;9.27;4.65;;;;;;;;;;4223661;28;20048;-78
2023/10/07 21:37:35;;;;;;;9.68;4.53;;;;;;;;;;4216341;28;20048;-79
2023/10/07 21:39:38;;;;;;;9.27;3.83;;;;;;;;;;4217340;28;20079;-79
2023/10/07 21:41:40;;;;;;;9.13;3.95;;;;;;;;;;4216350;28;20055;-80
2023/10/07 21:43:43;;;;;;;9.90;4.70;;;;;;;;;;4211397;28;20047;-79
2023/10/07 21:45:45;;;;;;;8.98;4.65;;;;;;;;;;4199493;28;20044;-80
2023/10/07 21:47:49;;;;;;;9.80;4.60;;;;;;;;;;4209371;28;20382;-80
2023/10/07 21:49:51;;;;;;;10.60;4.63;;;;;;;;;;4216910;28;20040;-79
2023/10/07 21:51:53;;;;;;;10.18;4.50;;;;;;;;;;4216409;28;20058;-78
2023/10/07 21:53:57;;;;;;;7.80;3.92;;;;;;;;;;4215817;28;20043;-77
2023/10/07 21:55:58;;;;;;;10.63;4.40;;;;;;;;;;4216325;28;20047;-78
2023/10/07 21:58:01;;;;;;;9.98;4.65;;;;;;;;;;4216292;28;20044;-78
2023/10/07 22:00:11;;;;;;;9.68;4.50;;;;;;;;;;4216680;28;20385;-80
2023/10/07 22:02:13;;;;;;;10.60;4.85;;;;;;;;;;4216492;28;20048;-80
2023/10/07 22:04:15;;;;;;;9.07;4.35;;;;;;;;;;4214448;28;20048;-81
2023/10/07 22:06:18;;;;;;;10.63;4.93;;;;;;;;;;4216352;28;20044;-81
2023/10/07 22:08:20;;;;;;;10.05;4.35;;;;;;;;;;4216616;28;20051;-80
2023/10/07 22:10:26;;;;;;;9.63;4.65;;;;;;;;;;4229633;28;20040;-79
2023/10/07 22:12:28;;;;;;;12.05;4.38;;;;;;;;;;4221476;28;20036;-80
2023/10/07 22:14:30;;;;;;;10.02;4.82;;;;;;;;;;4199560;28;20051;-81
2023/10/07 22:16:33;;;;;;;9.98;4.55;;;;;;;;;;4199603;28;20074;-78
2023/10/07 22:18:35;;;;;;;11.13;4.40;;;;;;;;;;4200079;28;20392;-77
2023/10/07 22:20:41;;;;;;;9.00;4.25;;;;;;;;;;4215705;28;20044;-76
2023/10/07 22:22:45;;;;;;;10.10;4.38;;;;;;;;;;4216781;28;20135;-81
2023/10/07 22:24:48;;;;;;;10.07;4.35;;;;;;;;;;4215818;28;20044;-79
2023/10/07 22:26:52;;;;;;;9.23;4.40;;;;;;;;;;4216285;28;20047;-81
2023/10/07 22:28:54;;;;;;;9.55;4.22;;;;;;;;;;4216971;28;20055;-80
2023/10/07 22:30:57;;;;;;;8.93;3.97;;;;;;;;;;4232871;28;20078;-79
2023/10/07 22:32:59;;;;;;;10.60;4.22;;;;;;;;;;4224958;28;20485;-77
2023/10/07 22:35:12;;;;;;;9.45;4.70;;;;;;;;;;4226791;28;20047;-82
2023/10/07 22:37:17;;;;;;;10.45;5.20;;;;;;;;;;4215655;28;20131;-80
2023/10/07 22:39:29;;;;;;;9.52;4.22;;;;;;;;;;4215479;28;20048;-78
2023/10/07 22:41:37;;;;;;;8.52;4.18;;;;;;;;;;4216463;28;20459;-81
2023/10/07 22:43:41;;;;;;;10.07;4.82;;;;;;;;;;4216046;28;20140;-81
2023/10/07 22:45:48;;;;;;;11.30;4.40;;;;;;;;;;4215568;28;20067;-79
2023/10/07 22:47:51;;;;;;;10.82;4.50;;;;;;;;;;4215601;28;20048;-78
2023/10/07 22:49:55;;;;;;;9.27;4.57;;;;;;;;;;4219634;28;20373;-80
2023/10/07 22:52:03;;;;;;;8.38;4.47;;;;;;;;;;4214158;28;20131;-80
2023/10/07 22:54:17;;;;;;;10.50;5.20;;;;;;;;;;4215590;28;20048;-80
2023/10/07 22:56:20;;;;;;;10.50;4.80;;;;;;;;;;4215831;28;20086;-76
2023/10/07 22:58:21;;;;;;;9.40;4.80;;;;;;;;;;4214864;28;20093;-78
2023/10/07 23:00:29;;;;;;;10.50;4.70;;;;;;;;;;4215148;28;20092;-79
2023/10/07 23:02:37;;;;;;;9.18;4.38;;;;;;;;;;4215537;28;20048;-78
2023/10/07 23:04:43;;;;;;;10.30;4.82;;;;;;;;;;4206553;28;20044;-79
2023/10/07 23:06:56;;;;;;;8.75;4.43;;;;;;;;;;4214219;28;20048;-79
2023/10/07 23:09:05;;;;;;;9.48;4.68;;;;;;;;;;4216986;28;20097;-79
2023/10/07 23:11:09;;;;;;;8.68;4.38;;;;;;;;;;4232317;28;20450;-78
2023/10/07 23:13:13;;;;;;;11.13;5.03;;;;;;;;;;4231795;28;20048;-79
2023/10/07 23:15:15;;;;;;;11.05;5.10;;;;;;;;;;4232175;28;20385;-80
2023/10/07 23:17:22;;;;;;;11.23;5.10;;;;;;;;;;4232271;28;20071;-82
2023/10/07 23:19:26;;;;;;;10.43;4.68;;;;;;;;;;4224713;28;20076;-80
2023/10/07 23:21:59;;;;;;;11.35;4.85;;;;;;;;;;4215259;28;20084;-80
2023/10/07 23:24:05;;;;;;;11.43;5.18;;;;;;;;;;4215476;28;20059;-80
2023/10/07 23:26:09;;;;;;;9.38;4.60;;;;;;;;;;4215524;28;20048;-80
2023/10/07 23:28:22;;;;;;;10.45;4.60;;;;;;;;;;4214853;28;20080;-80
2023/10/07 23:30:27;;;;;;;9.15;4.15;;;;;;;;;;4228624;28;20079;-79
2023/10/07 23:32:37;;;;;;;10.10;4.60;;;;;;;;;;4232212;28;20047;-81
2023/10/07 23:34:41;;;;;;;10.48;4.47;;;;;;;;;;4232275;28;20086;-80
2023/10/07 23:36:44;;;;;;;9.73;4.40;;;;;;;;;;4231827;28;20044;-80
2023/10/07 23:38:47;;;;;;;11.43;4.35;;;;;;;;;;4228416;28;20047;-78
2023/10/07 23:40:52;;;;;;;14.07;4.60;;;;;;;;;;4216791;28;20461;-81
2023/10/07 23:42:54;;;;;;;11.90;4.72;;;;;;;;;;4224818;28;20055;-79
2023/10/07 23:45:06;;;;;;;10.88;4.45;;;;;;;;;;4220177;28;20044;-80
2023/10/07 23:47:09;;;;;;;8.82;4.43;;;;;;;;;;4228876;28;20135;-79
2023/10/07 23:49:13;;;;;;;9.95;4.50;;;;;;;;;;4226916;28;20046;-81
2023/10/07 23:51:19;;;;;;;8.88;4.35;;;;;;;;;;4224831;28;20132;-79
2023/10/07 23:53:24;;;;;;;12.20;5.05;;;;;;;;;;4222666;28;20044;-78
2023/10/07 23:55:29;;;;;;;9.80;4.75;;;;;;;;;;4217207;28;20052;-78
2023/10/07 23:57:31;;;;;;;10.60;4.05;;;;;;;;;;4215248;28;20047;-79
2023/10/07 23:59:38;;;;;;;10.70;4.20;;;;;;;;;;4221909;28;20044;-77
